Time;durP1;ratioP1;P1;durP2;ratioP2;P2;SDS_P1;SDS_P2;PMS_P1;PMS_P2;Temp;Humidity;BMP_temperature;BMP_pressure;BME280_temperature;BME280_humidity;BME280_pressure;Samples;Min_cycle;Max_cycle;Signal;HPM_P1;HPM_P2
2023/07/28 00:02:16;;;;;;;3.20;2.70;;;;;;;17.12;68.33;99334.50;125710;1320;114901;-72
2023/07/28 00:05:50;;;;;;;;;;;;;;;;;;;;;
2023/07/28 00:09:25;;;;;;;5.50;3.30;;;;;;;17.12;68.17;99321.76;124540;1313;114993;-72
2023/07/28 00:13:07;;;;;;;5.10;2.60;;;;;;;17.11;68.36;99316.96;124844;1304;114992;-71
2023/07/28 00:17:02;;;;;;;4.60;2.40;;;;;;;17.09;68.42;99324.68;124570;1329;114894;-72
2023/07/28 00:20:42;;;;;;;3.50;2.90;;;;;;;17.10;68.75;99320.66;124700;1308;114965;-70
2023/07/28 00:24:15;;;;;;;2.60;2.40;;;;;;;17.10;68.85;99314.03;124588;1329;129784;-70
2023/07/28 00:27:48;;;;;;;4.90;2.60;;;;;;;17.10;68.87;99315.61;124957;1311;115286;-72
2023/07/28 00:31:30;;;;;;;6.30;2.40;;;;;;;17.11;68.89;99309.05;124853;1307;115742;-72
2023/07/28 00:35:14;;;;;;;2.90;2.70;;;;;;;17.10;68.89;99305.09;125294;1302;114914;-71
2023/07/28 00:38:46;;;;;;;4.00;2.20;;;;;;;17.09;69.08;99293.63;125730;1318;114949;-71
2023/07/28 00:42:09;;;;;;;3.80;2.30;;;;;;;17.11;69.16;99289.23;126139;1292;130067;-69
2023/07/28 00:45:38;;;;;;;;;;;;;;;;;;;;;
2023/07/28 00:49:04;;;;;;;5.30;2.30;;;;;;;17.10;69.34;99278.48;126837;1295;114656;-69
2023/07/28 00:52:46;;;;;;;3.10;2.20;;;;;;;17.09;69.49;99277.96;126349;1295;114879;-68
2023/07/28 00:56:17;;;;;;;2.40;2.20;;;;;;;17.11;69.64;99275.13;126802;1299;114805;-70
2023/07/28 00:59:56;;;;;;;1.90;1.70;;;;;;;17.10;69.68;99275.38;127756;1301;128948;-70
2023/07/28 01:03:36;;;;;;;4.90;2.70;;;;;;;17.10;69.80;99270.50;127636;1296;115272;-69
2023/07/28 01:07:28;;;;;;;;;;;;;;;;;;;;;
2023/07/28 01:11:32;;;;;;;4.30;2.50;;;;;;;17.09;70.02;99265.85;128193;1272;114962;-68
2023/07/28 01:15:28;;;;;;;5.30;2.50;;;;;;;17.10;70.25;99256.46;128842;1282;115277;-70
2023/07/28 01:19:20;;;;;;;2.90;2.40;;;;;;;17.10;70.24;99258.05;128527;1292;127681;-71
2023/07/28 01:23:22;;;;;;;4.00;1.90;;;;;;;17.09;70.27;99250.02;127430;1286;115249;-70
2023/07/28 01:27:08;;;;;;;;;;;;;;;;;;;;;
2023/07/28 01:31:39;;;;;;;3.50;2.10;;;;;;;17.13;70.52;99255.05;125687;1299;637176;-69
2023/07/28 01:35:20;;;;;;;;;;;;;;;;;;;;;
2023/07/28 01:38:55;;;;;;;5.00;3.30;;;;;;;17.13;70.81;99245.17;128094;1299;114875;-69
2023/07/28 01:42:34;;;;;;;;;;;;;;;;;;;;;
2023/07/28 01:46:24;;;;;;;6.10;3.20;;;;;;;17.14;70.99;99241.58;124244;1288;114959;-69
2023/07/28 01:49:51;;;;;;;4.30;2.80;;;;;;;17.15;71.11;99241.49;128054;1279;114729;-68
2023/07/28 01:53:30;;;;;;;;;;;;;;;;;;;;;
2023/07/28 01:57:17;;;;;;;6.20;3.70;;;;;;;17.18;71.28;99221.77;128795;1276;128642;-68
2023/07/28 02:00:35;;;;;;;;;;;;;;;;;;;;;
2023/07/28 02:04:18;;;;;;;8.30;4.80;;;;;;;17.19;71.43;99213.06;128765;1276;115327;-70
2023/07/28 02:07:58;;;;;;;;;;;;;;;;;;;;;
2023/07/28 02:11:42;;;;;;;4.80;4.30;;;;;;;17.17;71.70;99220.61;128754;1291;114908;-69
2023/07/28 02:15:37;;;;;;;;;;;;;;;;;;;;;
2023/07/28 02:19:30;;;;;;;7.10;3.70;;;;;;;17.15;71.93;99230.46;126999;1288;116480;-72
2023/07/28 02:23:23;;;;;;;5.00;4.20;;;;;;;17.16;71.90;99231.13;126171;1297;114828;-69
2023/07/28 02:27:02;;;;;;;8.20;4.20;;;;;;;17.16;72.03;99231.69;125629;1306;114882;-70
2023/07/28 02:30:45;;;;;;;5.60;4.60;;;;;;;17.17;72.22;99235.20;125572;1314;114936;-69
2023/07/28 02:34:37;;;;;;;5.40;4.70;;;;;;;17.20;72.58;99232.98;124932;1327;128798;-71
2023/07/28 02:38:23;;;;;;;6.60;6.00;;;;;;;17.20;73.01;99225.52;124995;1323;115379;-70
2023/07/28 02:42:16;;;;;;;;;;;;;;;;;;;;;
2023/07/28 02:46:08;;;;;;;;;;;;;;;;;;;;;
2023/07/28 02:50:24;;;;;;;;;;;;;;;;;;;;;
2023/07/28 02:54:28;;;;;;;15.00;5.80;;;;;;;17.24;73.97;99225.20;127772;1294;128982;-70
2023/07/28 02:58:12;;;;;;;;;;;;;;;;;;;;;
2023/07/28 03:02:21;;;;;;;8.10;5.20;;;;;;;17.20;74.23;99222.49;125699;1301;114907;-70
2023/07/28 03:06:06;;;;;;;6.40;5.60;;;;;;;17.17;74.52;99223.83;121268;1305;115009;-70
2023/07/28 03:09:59;;;;;;;;;;;;;;;;;;;;;
2023/07/28 03:17:25;;;;;;;7.30;5.10;;;;;;;17.20;75.16;99218.35;126515;1291;635905;-70
2023/07/28 03:21:04;;;;;;;6.00;5.30;;;;;;;17.18;75.24;99217.11;128969;1277;128138;-70
2023/07/28 03:24:46;;;;;;;6.00;5.40;;;;;;;17.18;75.38;99221.23;129316;1287;115537;-71
2023/07/28 03:28:16;;;;;;;5.90;5.40;;;;;;;17.18;75.55;99228.84;128954;1277;114905;-71
2023/07/28 03:32:19;;;;;;;7.20;5.90;;;;;;;17.19;75.67;99236.67;124534;1274;5444100;-70
2023/07/28 03:36:27;;;;;;;7.50;5.80;;;;;;;17.20;75.91;99241.50;127413;1289;114864;-70
2023/07/28 03:40:09;;;;;;;6.40;5.70;;;;;;;17.20;76.18;99231.72;126722;1294;114903;-69
2023/07/28 03:44:15;;;;;;;;;;;;;;;;;;;;;
2023/07/28 03:48:11;;;;;;;;;;;;;;;;;;;;;
2023/07/28 03:51:58;;;;;;;;;;;;;;;;;;;;;
2023/07/28 03:55:59;;;;;;;;;;;;;;;;;;;;;
2023/07/28 03:59:53;;;;;;;6.90;5.10;;;;;;;17.21;76.76;99211.98;123183;1298;114957;-69
2023/07/28 04:03:31;;;;;;;6.00;4.60;;;;;;;17.21;76.85;99205.65;126567;1292;114976;-69
2023/07/28 04:07:36;;;;;;;6.50;4.30;;;;;;;17.22;77.04;99201.84;126524;1314;114896;-70
2023/07/28 04:11:18;;;;;;;;;;;;;;;;;;;;;
2023/07/28 04:15:27;;;;;;;4.90;4.40;;;;;;;17.28;77.43;99187.79;126236;1316;115448;-70
2023/07/28 04:19:00;;;;;;;6.10;4.50;;;;;;;17.31;77.56;99184.85;126051;1295;114980;-70
2023/07/28 04:22:16;;;;;;;6.50;3.90;;;;;;;17.34;77.57;99183.46;126041;1316;114936;-70
2023/07/28 04:25:25;;;;;;;;;;;;;;;17.36;77.75;99182.84;126084;1301;114802;-70
2023/07/28 04:29:04;;;;;;;7.20;4.70;;;;;;;17.39;77.68;99179.68;126669;1289;131353;-70
2023/07/28 04:32:17;;;;;;;4.40;4.00;;;;;;;17.40;77.87;99177.47;126938;1284;114826;-70
2023/07/28 04:35:25;;;;;;;5.80;4.40;;;;;;;17.43;78.05;99180.75;127300;1287;114928;-70
2023/07/28 04:39:24;;;;;;;9.10;3.80;;;;;;;17.45;77.94;99178.04;127593;1296;115095;-71
2023/07/28 04:42:28;;;;;;;4.70;4.00;;;;;;;17.47;78.00;99173.13;128441;1277;114998;-70
2023/07/28 04:46:14;;;;;;;5.40;4.00;;;;;;;17.48;78.07;99173.40;128955;1274;127831;-69
2023/07/28 04:49:29;;;;;;;;;;;;;;;;;;;;;
2023/07/28 04:52:49;;;;;;;5.60;3.90;;;;;;;17.56;78.15;99169.58;129039;1272;115027;-70
2023/07/28 04:56:12;;;;;;;;;;;;;;;;;;;;;
2023/07/28 04:59:57;;;;;;;4.90;3.80;;;;;;;17.64;78.15;99167.04;129062;1268;114892;-69
2023/07/28 05:03:29;;;;;;;;;;;;;;;;;;;;;
2023/07/28 05:06:43;;;;;;;5.50;3.40;;;;;;;17.74;78.37;99174.17;128414;1279;115378;-70
2023/07/28 05:10:31;;;;;;;5.40;3.80;;;;;;;17.79;78.26;99177.35;128872;1288;114834;-69
2023/07/28 05:14:27;;;;;;;;;;;;;;;;;;;;;
2023/07/28 05:18:22;;;;;;;4.30;2.50;;;;;;;17.84;78.17;99189.81;128068;1280;114894;-69
2023/07/28 05:22:20;;;;;;;2.70;2.50;;;;;;;17.86;78.25;99190.21;128208;1299;128565;-70
2023/07/28 05:25:38;;;;;;;;;;;;;;;;;;;;;
2023/07/28 05:29:32;;;;;;;4.40;2.90;;;;;;;17.88;78.57;99197.38;128229;1283;114942;-72
2023/07/28 05:33:13;;;;;;;;;;;;;;;;;;;;;
2023/07/28 05:36:29;;;;;;;4.70;2.70;;;;;;;17.89;79.13;99189.86;128354;1277;114913;-71
2023/07/28 05:39:57;;;;;;;8.50;3.10;;;;;;;17.91;79.38;99189.48;128492;1280;127868;-70
2023/07/28 05:43:50;;;;;;;3.30;2.80;;;;;;;17.94;79.58;99181.80;128805;1277;115303;-70
2023/07/28 05:47:06;;;;;;;5.00;2.30;;;;;;;17.98;79.96;99176.55;128469;1277;114943;-71
2023/07/28 05:50:50;;;;;;;;;;;;;;;;;;;;;
2023/07/28 05:54:29;;;;;;;2.10;1.80;;;;;;;18.09;80.23;99181.29;129290;1270;114794;-71
2023/07/28 05:58:11;;;;;;;2.50;1.90;;;;;;;18.14;80.25;99186.55;129742;1265;128769;-71
2023/07/28 06:01:31;;;;;;;2.10;1.80;;;;;;;18.19;80.40;99188.45;129708;1264;114753;-70
2023/07/28 06:04:50;;;;;;;6.20;1.90;;;;;;;18.25;80.46;99186.27;129837;1281;114693;-71
2023/07/28 06:08:41;;;;;;;4.40;2.20;;;;;;;18.29;80.62;99188.91;129490;1265;115131;-71
2023/07/28 06:12:16;;;;;;;3.10;2.10;;;;;;;18.36;80.88;99192.37;129856;1272;114828;-72
2023/07/28 06:15:43;;;;;;;3.20;2.00;;;;;;;18.43;80.98;99185.66;129800;1281;128856;-69
2023/07/28 06:19:02;;;;;;;2.70;2.10;;;;;;;18.50;80.85;99181.73;129608;1278;114899;-68
2023/07/28 06:22:38;;;;;;;3.30;2.10;;;;;;;18.56;80.80;99185.08;129835;1281;115125;-70
2023/07/28 06:25:55;;;;;;;;;;;;;;;;;;;;;
2023/07/28 06:29:17;;;;;;;3.90;2.50;;;;;;;18.70;81.00;99188.01;129853;1278;114813;-70
2023/07/28 06:33:07;;;;;;;2.80;2.40;;;;;;;18.79;81.10;99184.02;129706;1272;129822;-70
2023/07/28 06:36:45;;;;;;;2.40;2.20;;;;;;;18.89;81.06;99190.98;129652;1265;116425;-70
2023/07/28 06:40:22;;;;;;;4.60;1.90;;;;;;;18.97;80.90;99194.19;129764;1281;114790;-71
2023/07/28 06:43:50;;;;;;;5.40;2.70;;;;;;;19.01;80.84;99196.73;129798;1281;114816;-70
2023/07/28 06:47:04;;;;;;;3.70;2.30;;;;;;;19.06;80.95;99195.96;129442;1276;114837;-72
2023/07/28 06:50:38;;;;;;;2.90;2.20;;;;;;;19.12;80.98;99201.84;129348;1269;128135;-70
2023/07/28 06:57:39;;;;;;;;;;;;;;;;;;;;;
2023/07/28 07:01:26;;;;;;;;;;;;;;;;;;;;;
2023/07/28 07:09:00;;;;;;;;;;;;;;;;;;;;;
2023/07/28 07:12:49;;;;;;;3.50;1.30;;;;;;;19.89;80.99;99194.61;127377;1289;114775;-71
2023/07/28 07:16:24;;;;;;;4.20;1.20;;;;;;;20.02;80.63;99200.10;127048;1293;115003;-71
2023/07/28 07:20:15;;;;;;;2.10;1.60;;;;;;;20.15;80.60;99207.65;127556;1286;114960;-72
2023/07/28 07:24:14;;;;;;;;;;;;;;;;;;;;;
2023/07/28 07:28:14;;;;;;;;;;;;;;;;;;;;;
2023/07/28 07:31:56;;;;;;;2.60;1.00;;;;;;;20.55;80.31;99214.27;126466;1312;115089;-69
2023/07/28 07:36:01;;;;;;;2.00;1.30;;;;;;;20.64;79.71;99211.94;126324;1296;114953;-70
2023/07/28 07:39:46;;;;;;;;;;;;;;;;;;;;;
2023/07/28 07:43:21;;;;;;;;;;;;;;;;;;;;;
2023/07/28 07:47:04;;;;;;;;;;;;;;;;;;;;;
2023/07/28 07:50:36;;;;;;;1.00;0.80;;;;;;;20.73;78.99;99226.30;125944;1300;115241;-70
2023/07/28 07:53:58;;;;;;;2.00;1.00;;;;;;;20.76;78.64;99228.06;125820;1294;115375;-69
2023/07/28 07:57:19;;;;;;;0.70;0.70;;;;;;;20.80;78.55;99229.02;125855;1302;114880;-68
2023/07/28 08:00:23;;;;;;;1.30;0.80;;;;;;;20.84;78.45;99229.07;126523;1305;114843;-70
2023/07/28 08:03:43;;;;;;;0.90;0.90;;;;;;;20.86;78.22;99232.63;127033;1286;128941;-69
2023/07/28 08:07:15;;;;;;;2.50;1.10;;;;;;;20.88;78.15;99228.30;127563;1288;115288;-68
2023/07/28 08:10:36;;;;;;;2.70;1.30;;;;;;;20.92;78.00;99232.95;127804;1295;114940;-71
2023/07/28 08:13:48;;;;;;;2.50;1.30;;;;;;;20.97;77.95;99224.77;128123;1282;114973;-69
2023/07/28 08:17:31;;;;;;;;;;;;;;;;;;;;;
2023/07/28 08:21:11;;;;;;;2.00;1.10;;;;;;;21.03;77.42;99235.12;129296;1270;128875;-68
2023/07/28 08:24:18;;;;;;;4.90;3.70;;;;;;;21.06;77.44;99239.58;129595;1261;115288;-67
2023/07/28 08:27:54;;;;;;;5.00;2.00;;;;;;;21.08;77.46;99233.77;129739;1282;114785;-68
2023/07/28 08:31:26;;;;;;;0.90;0.90;;;;;;;21.10;77.44;99242.23;129837;1263;114702;-70
2023/07/28 08:34:57;;;;;;;4.70;2.00;;;;;;;21.07;77.39;99244.71;129508;1267;115091;-70
2023/07/28 08:38:17;;;;;;;10.90;3.70;;;;;;;21.03;77.40;99248.35;129576;1266;129050;-68
2023/07/28 08:45:51;;;;;;;5.80;2.20;;;;;;;21.15;77.71;99256.95;129748;1280;114720;-68
2023/07/28 08:49:34;;;;;;;2.20;1.20;;;;;;;21.29;77.96;99260.06;129849;1273;114728;-69
2023/07/28 08:53:00;;;;;;;2.50;1.10;;;;;;;21.51;78.38;99262.67;129222;1287;114759;-69
2023/07/28 08:56:29;;;;;;;2.70;0.90;;;;;;;21.74;78.18;99258.70;129340;1268;128837;-68
2023/07/28 08:59:54;;;;;;;0.60;0.60;;;;;;;21.91;77.85;99260.95;129437;1278;115234;-69
2023/07/28 09:03:27;;;;;;;;;;;;;;;22.17;77.91;99260.05;129374;1270;114927;-68
2023/07/28 09:06:41;;;;;;;0.80;0.70;;;;;;;22.58;77.94;99267.48;129471;1268;114877;-69
2023/07/28 09:09:49;;;;;;;0.90;0.90;;;;;;;23.15;78.48;99267.73;129463;1280;114965;-68
2023/07/28 09:13:07;;;;;;;1.60;0.80;;;;;;;23.66;77.80;99265.70;129359;1269;128755;-68
2023/07/28 09:16:41;;;;;;;1.00;1.00;;;;;;;23.94;76.78;99265.65;129161;1283;115352;-68
2023/07/28 09:20:39;;;;;;;1.00;0.90;;;;;;;24.23;76.53;99260.09;129490;1269;114878;-68
2023/07/28 09:24:17;;;;;;;0.80;0.80;;;;;;;24.54;75.62;99259.14;129338;1280;115119;-68
2023/07/28 09:27:43;;;;;;;1.10;1.00;;;;;;;24.77;74.81;99258.97;129443;1269;114847;-69
2023/07/28 09:31:10;;;;;;;1.00;1.00;;;;;;;24.84;73.60;99259.11;129693;1261;120555;-68
2023/07/28 09:35:00;;;;;;;1.10;1.10;;;;;;;24.81;73.15;99259.39;129708;1261;115562;-67
2023/07/28 09:38:30;;;;;;;1.20;1.00;;;;;;;24.97;72.95;99256.08;129471;1267;114729;-69
2023/07/28 09:42:00;;;;;;;1.10;1.10;;;;;;;25.22;72.39;99251.16;129426;1269;114692;-68
2023/07/28 09:45:29;;;;;;;3.10;1.00;;;;;;;25.44;71.72;99252.38;129353;1279;114906;-68
2023/07/28 09:48:43;;;;;;;1.00;0.90;;;;;;;25.75;71.71;99253.86;129412;1267;120211;-69
2023/07/28 09:52:17;;;;;;;1.90;0.90;;;;;;;26.01;70.97;99252.53;129262;1281;114918;-67
2023/07/28 09:55:49;;;;;;;;;;;;;;;;;;;;;
2023/07/28 09:59:04;;;;;;;1.40;1.10;;;;;;;26.39;68.97;99244.96;129294;1270;114705;-68
2023/07/28 10:02:17;;;;;;;;;;;;;;;;;;;;;
2023/07/28 10:05:44;;;;;;;1.40;1.30;;;;;;;26.24;67.11;99241.78;129446;1270;120205;-64
2023/07/28 10:09:04;;;;;;;1.70;1.60;;;;;;;26.07;66.18;99242.27;128791;1270;115263;-65
2023/07/28 10:12:47;;;;;;;2.60;1.30;;;;;;;25.81;65.62;99243.73;129092;1274;114836;-63
2023/07/28 10:15:58;;;;;;;2.40;1.20;;;;;;;25.66;65.77;99247.90;129437;1281;114745;-64
2023/07/28 10:19:16;;;;;;;1.30;1.20;;;;;;;25.68;66.25;99247.30;129601;1260;114816;-64
2023/07/28 10:22:52;;;;;;;2.60;1.20;;;;;;;25.78;65.96;99241.05;129475;1269;119021;-69
2023/07/28 10:26:09;;;;;;;1.60;1.20;;;;;;;25.95;66.16;99239.36;129917;1275;114809;-67
2023/07/28 10:29:20;;;;;;;1.10;1.10;;;;;;;26.05;66.14;99238.48;129486;1277;114707;-63
2023/07/28 10:32:52;;;;;;;3.00;1.10;;;;;;;26.10;65.95;99243.98;129195;1264;116232;-63
2023/07/28 10:36:30;;;;;;;1.30;1.20;;;;;;;26.14;65.59;99241.13;129402;1277;114681;-65
2023/07/28 10:40:01;;;;;;;1.70;1.00;;;;;;;26.20;64.79;99240.14;129338;1264;120113;-66
2023/07/28 10:43:33;;;;;;;3.10;1.20;;;;;;;26.25;64.25;99244.60;129456;1281;115180;-65
2023/07/28 10:46:58;;;;;;;;;;;;;;;;;;;;;
2023/07/28 10:50:43;;;;;;;3.00;1.20;;;;;;;26.46;63.44;99245.48;129583;1266;114854;-65
2023/07/28 10:54:31;;;;;;;1.00;1.00;;;;;;;26.61;62.74;99242.02;130130;1264;114707;-66
2023/07/28 10:58:24;;;;;;;1.90;1.30;;;;;;;26.67;62.34;99240.10;128867;1278;120230;-65
2023/07/28 11:02:15;;;;;;;4.10;1.40;;;;;;;26.93;62.24;99235.93;128008;1273;116641;-65
2023/07/28 11:06:07;;;;;;;2.20;1.20;;;;;;;27.15;61.49;99236.08;127636;1285;114887;-67
2023/07/28 11:10:11;;;;;;;1.90;1.40;;;;;;;27.36;61.00;99230.03;127752;1285;114923;-72
2023/07/28 11:14:03;;;;;;;1.10;1.10;;;;;;;27.57;60.12;99225.33;126567;1296;114940;-70
2023/07/28 11:17:52;;;;;;;2.80;1.20;;;;;;;27.66;59.00;99226.16;126044;1296;119379;-67
2023/07/28 11:21:03;;;;;;;2.80;0.90;;;;;;;27.65;58.58;99225.98;124871;1308;115468;-71
2023/07/28 11:24:13;;;;;;;0.80;0.80;;;;;;;27.67;58.38;99226.08;124563;1329;115025;-72
2023/07/28 11:27:16;;;;;;;1.00;1.00;;;;;;;27.77;58.32;99218.98;124904;1321;114968;-71
2023/07/28 11:30:58;;;;;;;;;;;;;;;;;;;;;
2023/07/28 11:34:21;;;;;;;1.30;1.20;;;;;;;28.01;57.32;99210.48;126693;1293;635971;-66
2023/07/28 11:37:27;;;;;;;2.50;1.20;;;;;;;28.03;57.05;99210.64;129438;1279;119956;-66
2023/07/28 11:40:43;;;;;;;1.10;1.10;;;;;;;28.02;56.46;99204.92;129177;1273;115000;-66
2023/07/28 11:44:11;;;;;;;2.70;1.00;;;;;;;27.99;55.95;99200.33;129369;1274;114852;-66
2023/07/28 11:47:56;;;;;;;;;;;;;;;;;;;;;
2023/07/28 11:51:19;;;;;;;1.30;1.00;;;;;;;27.96;55.46;99203.55;129017;1286;114921;-70
2023/07/28 11:54:48;;;;;;;1.20;1.10;;;;;;;28.00;55.01;99199.77;128481;1279;114909;-66
2023/07/28 11:58:20;;;;;;;1.20;1.10;;;;;;;27.96;54.46;99200.39;128559;1279;119770;-66
2023/07/28 12:01:38;;;;;;;1.70;1.00;;;;;;;27.83;54.29;99208.38;128730;1279;114885;-66
2023/07/28 12:04:57;;;;;;;2.20;1.00;;;;;;;27.81;54.36;99207.36;129570;1267;114831;-65
2023/07/28 12:08:55;;;;;;;3.60;1.20;;;;;;;27.82;53.95;99202.23;129518;1271;114876;-66
2023/07/28 12:12:04;;;;;;;2.40;1.50;;;;;;;27.84;54.16;99205.27;128964;1274;114824;-67
2023/07/28 12:15:55;;;;;;;1.10;1.10;;;;;;;27.86;53.82;99204.65;128858;1277;121022;-66
2023/07/28 12:19:01;;;;;;;2.80;1.10;;;;;;;27.85;52.85;99208.49;128363;1291;115058;-68
2023/07/28 12:22:39;;;;;;;1.40;1.30;;;;;;;27.78;52.80;99208.40;128902;1277;115225;-70
2023/07/28 12:25:42;;;;;;;3.80;1.50;;;;;;;27.72;52.90;99207.20;128788;1270;115133;-67
2023/07/28 12:28:56;;;;;;;1.10;1.10;;;;;;;27.69;52.83;99207.41;129313;1277;115159;-67
2023/07/28 12:32:18;;;;;;;3.90;1.00;;;;;;;27.59;52.47;99208.83;129390;1271;120071;-68
2023/07/28 12:35:33;;;;;;;1.10;1.00;;;;;;;27.50;52.73;99207.65;129495;1269;114820;-66
2023/07/28 12:38:44;;;;;;;;;;;;;;;27.47;52.53;99211.15;129708;1269;114707;-71
2023/07/28 12:41:52;;;;;;;2.10;1.10;;;;;;;27.45;52.38;99213.44;129456;1267;114756;-72
2023/07/28 12:45:15;;;;;;;1.70;1.60;;;;;;;27.44;52.38;99216.99;129363;1284;114816;-69
2023/07/28 12:48:37;;;;;;;;;;;;;;;;;;;;;
2023/07/28 12:51:46;;;;;;;3.00;1.20;;;;;;;27.52;52.18;99219.29;130262;1261;114903;-70
2023/07/28 12:54:59;;;;;;;0.80;0.80;;;;;;;27.50;52.05;99213.02;130240;1271;114817;-70
2023/07/28 12:58:06;;;;;;;2.50;0.90;;;;;;;27.49;52.03;99209.67;129825;1254;115164;-72
2023/07/28 13:01:11;;;;;;;1.60;1.10;;;;;;;27.50;52.15;99212.05;130296;1267;114792;-72
2023/07/28 13:04:14;;;;;;;1.20;0.80;;;;;;;27.58;52.05;99207.48;130264;1261;120157;-71
2023/07/28 13:07:27;;;;;;;2.90;0.70;;;;;;;27.64;51.10;99212.70;130285;1260;114822;-72
2023/07/28 13:10:40;;;;;;;0.90;0.80;;;;;;;27.69;50.98;99214.80;130258;1267;114705;-68
2023/07/28 13:13:55;;;;;;;1.50;0.80;;;;;;;27.77;50.50;99214.92;130322;1259;115083;-70
2023/07/28 13:17:08;;;;;;;2.00;0.60;;;;;;;27.71;50.00;99214.85;130279;1254;115099;-66
2023/07/28 13:20:43;;;;;;;0.70;0.70;;;;;;;27.60;50.18;99221.15;129838;1267;120292;-66
2023/07/28 13:24:37;;;;;;;3.80;0.90;;;;;;;27.55;50.32;99212.42;129817;1277;114733;-64
2023/07/28 13:28:25;;;;;;;;;;;;;;;;;;;;;
2023/07/28 13:31:58;;;;;;;;;;;;;;;;;;;;;
2023/07/28 13:35:37;;;;;;;4.00;1.10;;;;;;;27.39;50.15;99216.73;128768;1277;115170;-68
2023/07/28 13:39:07;;;;;;;;;;;;;;;;;;;;;
2023/07/28 13:42:53;;;;;;;2.80;1.00;;;;;;;27.31;50.20;99222.29;128300;1284;114881;-70
2023/07/28 13:46:20;;;;;;;1.70;0.80;;;;;;;27.27;50.21;99229.60;127951;1280;114844;-71
2023/07/28 13:50:03;;;;;;;2.60;0.90;;;;;;;27.31;50.20;99235.81;128237;1277;114957;-67
2023/07/28 13:53:31;;;;;;;0.80;0.70;;;;;;;27.40;50.29;99237.52;128188;1279;115000;-66
2023/07/28 13:57:05;;;;;;;1.10;0.60;;;;;;;27.51;50.01;99243.29;128070;1280;119402;-66
2023/07/28 14:00:30;;;;;;;0.80;0.70;;;;;;;27.61;49.64;99250.64;127523;1283;115421;-68
2023/07/28 14:04:19;;;;;;;5.40;1.00;;;;;;;27.71;49.45;99253.53;127587;1286;115029;-69
2023/07/28 14:07:42;;;;;;;;;;;;;;;;;;;;;
2023/07/28 14:11:45;;;;;;;1.00;0.90;;;;;;;27.66;48.69;99246.57;128423;1273;114938;-68
2023/07/28 14:15:38;;;;;;;0.70;0.70;;;;;;;27.68;48.59;99244.87;126955;1292;121201;-67
2023/07/28 14:19:21;;;;;;;0.60;0.60;;;;;;;27.77;48.56;99244.61;127143;1296;114838;-69
2023/07/28 14:23:02;;;;;;;3.40;0.60;;;;;;;27.77;48.14;99248.11;127648;1297;115428;-67
2023/07/28 14:27:11;;;;;;;1.20;1.10;;;;;;;27.70;47.92;99248.73;127636;1304;114827;-67
2023/07/28 14:30:46;;;;;;;;;;;;;;;;;;;;;
2023/07/28 14:34:23;;;;;;;;;;;;;;;27.46;48.02;99249.75;127140;1297;121187;-71
2023/07/28 14:37:37;;;;;;;1.90;0.80;;;;;;;27.35;47.66;99253.52;127310;1299;115058;-67
2023/07/28 14:41:19;;;;;;;1.80;0.80;;;;;;;27.27;47.12;99252.38;127677;1285;114858;-67
2023/07/28 14:44:31;;;;;;;1.40;0.80;;;;;;;27.26;47.14;99251.26;127553;1289;114843;-69
2023/07/28 14:48:14;;;;;;;0.90;0.90;;;;;;;27.26;47.26;99251.02;128349;1280;114838;-67
2023/07/28 14:52:12;;;;;;;2.20;0.70;;;;;;;27.21;46.89;99253.39;128495;1278;119248;-68
2023/07/28 14:56:03;;;;;;;1.30;1.20;;;;;;;27.16;47.19;99253.34;128446;1276;116381;-66
2023/07/28 14:59:36;;;;;;;1.40;0.80;;;;;;;27.16;47.21;99263.20;128114;1300;115047;-67
2023/07/28 15:02:48;;;;;;;2.10;0.60;;;;;;;27.16;46.94;99267.21;127987;1280;115301;-66
2023/07/28 15:05:55;;;;;;;7.30;0.80;;;;;;;27.11;46.61;99267.51;128177;1282;114955;-66
2023/07/28 15:09:21;;;;;;;;;;;;;;;;;;;;;
2023/07/28 15:12:47;;;;;;;;;;;;;;;;;;;;;
2023/07/28 15:16:08;;;;;;;0.70;0.70;;;;;;;27.07;46.78;99264.83;128583;1279;114785;-66
2023/07/28 15:19:41;;;;;;;1.70;0.60;;;;;;;27.13;46.35;99267.29;128921;1273;114937;-68
2023/07/28 15:23:04;;;;;;;0.80;0.60;;;;;;;27.19;46.20;99271.61;128538;1274;114798;-67
2023/07/28 15:26:47;;;;;;;;;;;;;;;;;;;;;
2023/07/28 15:30:12;;;;;;;;;;;;;;;;;;;;;
2023/07/28 15:33:44;;;;;;;0.60;0.60;;;;;;;27.19;45.91;99276.02;129142;1264;116416;-68
2023/07/28 15:37:38;;;;;;;1.30;0.90;;;;;;;27.11;46.03;99274.19;130050;1261;114925;-66
2023/07/28 15:41:01;;;;;;;;;;;;;;;;;;;;;
2023/07/28 15:44:42;;;;;;;;;;;;;;;;;;;;;
2023/07/28 15:48:46;;;;;;;1.10;0.70;;;;;;;26.71;46.34;99280.85;129330;1267;114989;-68
2023/07/28 15:52:27;;;;;;;;;;;;;;;;;;;;;
2023/07/28 15:56:16;;;;;;;0.80;0.80;;;;;;;26.50;46.73;99277.56;127161;1290;114941;-69
2023/07/28 16:00:20;;;;;;;;;;;;;;;;;;;;;
2023/07/28 16:04:01;;;;;;;1.30;1.00;;;;;;;26.34;46.49;99277.42;125572;1305;121149;-66
2023/07/28 16:08:03;;;;;;;1.50;0.70;;;;;;;26.28;46.57;99280.10;125621;1306;114824;-67
2023/07/28 16:11:53;;;;;;;1.00;0.90;;;;;;;26.18;46.62;99279.74;124917;1312;115002;-65
2023/07/28 16:19:27;;;;;;;0.80;0.60;;;;;;;26.03;46.86;99280.11;126297;1298;636196;-71
2023/07/28 16:23:18;;;;;;;0.60;0.60;;;;;;;25.95;46.90;99283.06;128915;1274;120228;-71
2023/07/28 16:27:21;;;;;;;0.80;0.80;;;;;;;25.90;47.19;99285.60;128921;1273;114808;-68
2023/07/28 16:31:08;;;;;;;0.70;0.70;;;;;;;25.88;47.42;99287.34;128178;1281;115394;-66
2023/07/28 16:34:23;;;;;;;;;;;;;;;;;;;;;
2023/07/28 16:38:01;;;;;;;2.70;1.20;;;;;;;25.82;47.83;99298.10;127748;1301;114935;-69
2023/07/28 16:41:54;;;;;;;1.10;1.00;;;;;;;25.78;47.70;99306.09;127155;1289;114948;-68
2023/07/28 16:45:37;;;;;;;1.10;1.00;;;;;;;25.72;47.74;99310.45;126571;1295;122098;-69
2023/07/28 16:49:38;;;;;;;1.00;0.70;;;;;;;25.65;47.88;99311.73;126542;1295;114890;-67
2023/07/28 16:53:27;;;;;;;;;;;;;;;;;;;;;
2023/07/28 17:02:06;;;;;;;1.00;0.90;;;;;;;25.48;48.20;99324.17;125823;1302;639652;-67
2023/07/28 17:06:00;;;;;;;;;;;;;;;;;;;;;
2023/07/28 17:10:00;;;;;;;;;;;;;;;;;;;;;
2023/07/28 17:14:01;;;;;;;1.10;1.00;;;;;;;25.28;48.18;99338.43;121045;1308;5506151;-68
2023/07/28 17:17:45;;;;;;;;;;;;;;;;;;;;;
2023/07/28 17:21:15;;;;;;;1.10;1.10;;;;;;;25.12;48.79;99344.31;123442;1340;116714;-70
2023/07/28 17:24:37;;;;;;;1.60;1.00;;;;;;;25.08;48.86;99357.29;123266;1328;114923;-70
2023/07/28 17:28:58;;;;;;;3.70;1.30;;;;;;;25.08;49.46;99372.98;126653;1295;636589;-70
2023/07/28 17:32:49;;;;;;;7.20;1.20;;;;;;;24.92;50.39;99375.08;128026;1292;127857;-67
2023/07/28 17:36:52;;;;;;;2.30;1.10;;;;;;;24.73;50.88;99378.71;127323;1282;114882;-69
2023/07/28 17:40:59;;;;;;;3.40;1.60;;;;;;;24.48;51.50;99394.55;122533;1295;5437034;-69
2023/07/28 17:44:52;;;;;;;;;;;;;;;;;;;;;
2023/07/28 17:49:10;;;;;;;2.40;1.50;;;;;;;24.08;52.40;99387.61;125927;1301;638693;-67
2023/07/28 17:53:10;;;;;;;3.60;1.40;;;;;;;23.90;53.00;99399.99;128958;1273;128820;-67
2023/07/28 17:57:10;;;;;;;;;;;;;;;;;;;;;
2023/07/28 18:01:14;;;;;;;4.30;1.60;;;;;;;23.56;53.69;99408.94;123683;1288;5418212;-66
2023/07/28 18:05:08;;;;;;;1.10;1.00;;;;;;;23.41;54.24;99412.08;125875;1302;114877;-68
2023/07/28 18:13:30;;;;;;;;;;;;;;;;;;;;;
2023/07/28 18:17:34;;;;;;;2.50;2.20;;;;;;;23.01;55.10;99418.70;128152;1283;129111;-67
2023/07/28 18:21:14;;;;;;;3.20;2.30;;;;;;;22.86;55.56;99412.66;127511;1294;115360;-68
2023/07/28 18:25:42;;;;;;;2.20;2.00;;;;;;;22.74;55.83;99418.20;127396;1290;114829;-71
2023/07/28 18:29:11;;;;;;;2.70;1.50;;;;;;;22.59;56.26;99418.95;122921;1293;114982;-68
2023/07/28 18:33:02;;;;;;;3.90;2.40;;;;;;;22.46;56.64;99423.91;126642;1290;114944;-67
2023/07/28 18:36:43;;;;;;;;;;;;;;;;;;;;;
2023/07/28 18:40:33;;;;;;;2.30;2.10;;;;;;;22.17;57.42;99436.64;126621;1294;129786;-67
2023/07/28 18:44:27;;;;;;;4.40;3.10;;;;;;;22.01;57.95;99442.52;126032;1319;114871;-66
2023/07/28 18:47:59;;;;;;;3.30;2.30;;;;;;;21.86;58.35;99442.09;125482;1318;115080;-67
2023/07/28 18:51:31;;;;;;;;;;;;;;;;;;;;;
2023/07/28 18:59:25;;;;;;;4.50;1.90;;;;;;;21.49;59.37;99457.02;126095;1294;637213;-68
2023/07/28 19:03:19;;;;;;;;;;;;;;;;;;;;;
2023/07/28 19:06:49;;;;;;;3.50;1.70;;;;;;;21.25;60.16;99465.67;129514;1261;115755;-66
2023/07/28 19:10:14;;;;;;;3.10;1.80;;;;;;;21.14;60.46;99465.83;129474;1272;114954;-67
2023/07/28 19:13:48;;;;;;;;;;;;;;;21.04;60.72;99470.16;125387;1266;5486966;-67
2023/07/28 19:17:49;;;;;;;3.40;1.90;;;;;;;20.93;61.05;99475.50;129529;1283;114902;-67
2023/07/28 19:21:51;;;;;;;3.10;2.10;;;;;;;20.78;61.39;99477.77;129587;1264;128844;-68